Ashland, OR (97520)

4:40 PM PST on February 27, 2015 (GMT -0800)
Old Highway 99 | Change Station
CLOSE
Current Station
Personal Weather Station
Location: Ashland, OR
Elevation: 2320 ft
Nearby Weather Stations

Elev 2320 ft 42.12 °N, 122.61 °W | Updated 5 seconds ago

Rain
Rain
42.3 °F
Feels Like 42 °F
N
2.0
Wind Variable Wind from South
Gusts 4.0 mph

Today
High -- | Low -- °F
--% Chance of Precip.
Yesterday
High -- | Low -- °F
Precip. -- in
6:49 AM 5:58 PM
Waxing Gibbous, 73% visible
Pressure 29.74 in
Visibility 10.0 miles
Clouds Scattered Clouds 3600 ft
Mostly Cloudy 4400 ft
Overcast 7000 ft
Windchill 42 °F
Dew Point 40 °F
Humidity 90%
Rainfall 0.20 in
Snow Depth Not available.
UV 0 out of 12
Pollen 1.30 out of 12
Air Quality Not available.
Flu Activity Not available.
METAR KMFR 272353Z 09003KT 10SM -RA SCT036 BKN044 OVC070 09/05 A2973 RMK AO2 RAE26B43 SLP069 P0006 60006 T00940050 10117 20083 55012

More Conditions Fewer Conditions

Pressure 29.74 in
Visibility 10.0 miles
Clouds Scattered Clouds 3600 ft
Mostly Cloudy 4400 ft
Overcast 7000 ft
Windchill 42 °F
Dew Point 40 °F
Humidity 90%
Rainfall 0.20 in
Snow Depth Not available.
UV 0 out of 12
Pollen 1.30 out of 12
Air Quality Not available.
Flu Activity Not available.
METAR KMFR 272353Z 09003KT 10SM -RA SCT036 BKN044 OVC070 09/05 A2973 RMK AO2 RAE26B43 SLP069 P0006 60006 T00940050 10117 20083 55012

More Conditions Fewer Conditions

10-Day Weather Forecast

Almanac

Astronomy

Feb. 27, 2015 Rise Set
Actual Time
Civil Twilight
Nautical Twilight
Astronomical Twilight
Moon
Length of Visible Light
Length of Day
Tomorrow will be .
, % of the Moon is Illuminated

Today's Extremes

State Highs State Lows

Community

WunderPhotos

Upload Photos

1,800,910 photos uploaded!

WunderBlogs® & News

Nearby

Air Quality

  Air Quality AQ Index Pollutant
Not available.

Snow Depth

Station Depth Elevation

Earthquake Activity

City Distance Mag. Time & Date
Minimum magnitude displayed is 2.5.

Coastal Water Temperatures

Place Temperature

Nearby Weather Stations